Algoma Spirit — CFN4309 — position and weather

sailwx.info

Track history (hours):
 
Tides and Currents Weather Stations Pressure Air Temp Water Temp Dewpoint Dewpoint Depression Visibility Wind Speed Wind Dir Waves Ship Positions

Algoma Spirit

Last reported at 2018-Jun-21 17:58 UTC. Time now 2018-Jun-21 18:12 UTC.
Position N 47°01' W 091°40'.

Length 222 m; draft 7.3 m.

Type: Ship. MMSI: 316018616.

Date/timePositionNaut miles runAvg speedWind from/ knotsBaromVisibWave heightAir tempDewpointWater temp
2018-Jun-21 17:58N 47°01' W 091°40'0 0.0
2018-Jun-21 17:28N 47°01' W 091°40'0 0.0
2018-Jun-21 17:00N 47°01' W 091°40'0 0.1
2018-Jun-21 16:30N 47°01' W 091°40'1 1.7
2018-Jun-21 16:00N 47°00' W 091°40'5413.6
2018-Jun-21 12:00N 47°18' W 090°24'13813.8 050 / 131012.610.8 7.0
2018-Jun-21 02:00N 47°18' W 087°00'2110.6 170 / 21011.710.8 8.0
2018-Jun-21 00:00N 47°12' W 086°30'7514.9 010 / 91011.210.8 8.0
2018-Jun-20 19:00N 46°30' W 085°00'64 6.7 310 / 151012.010.8 13.0
2018-Jun-20 09:28N 45°50' W 083°48'613.7
2018-Jun-20 09:00N 45°45' W 083°42'713.8
2018-Jun-20 08:30N 45°39' W 083°37'713.7
2018-Jun-20 08:01N 45°34' W 083°31'713.5
2018-Jun-20 07:30N 45°28' W 083°26'713.6
2018-Jun-20 06:58N 45°22' W 083°20'7515.1
2018-Jun-20 02:00N 44°12' W 082°42'1514.8 340 / 121013.3 14.0
2018-Jun-20 01:00N 44°00' W 082°30'6 6.0 330 / 91013.510.8 15.0
2018-Jun-20 00:00N 43°54' W 082°30'8416.9 320 / 81013.610.8 16.0
2018-Jun-19 19:00N 42°30' W 082°18'60 4.3 360 / 131015.010.8 25.0
2018-Jun-19 05:00N 41°30' W 082°24'5012.6 020 / 141011.0 5.4 23.0
2018-Jun-19 01:00N 42°00' W 081°30'1514.9 310 / 141009.9 5.4 23.0
2018-Jun-19 00:00N 42°12' W 081°18'89 1.9 300 / 141009.9 5.4 22.0
2018-Jun-17 00:00N 43°12' W 079°48'46 1.9 310 / 41014.410.8 29.0
2018-Jun-16 00:00N 42°30' W 080°12'117 5.6 170 / 51015.010.8 20.0
2018-Jun-15 03:00N 43°30' W 082°30'6 6.0 360 / 21014.710.8 14.0
2018-Jun-15 02:00N 43°36' W 082°30'11612.9 200 / 71014.510.8 16.0
2018-Jun-14 17:01N 45°28' W 083°15'113.4
2018-Jun-14 16:56N 45°28' W 083°16'613.5
2018-Jun-14 16:31N 45°33' W 083°22'154 9.9
2018-Jun-14 01:00N 47°12' W 086°12'16312.5 300 / 201010.210.8 13.0
2018-Jun-13 12:00N 47°12' W 090°12'6014.1 270 / 251010.310.8 10.0
2018-Jun-13 07:42N 46°53' W 091°36'313.6
2018-Jun-13 07:29N 46°51' W 091°40'713.6
2018-Jun-13 07:00N 46°48' W 091°48'611.7
2018-Jun-13 06:31N 46°45' W 091°55'4 7.7
2018-Jun-13 06:00N 46°43' W 092°00'1 2.4
2018-Jun-13 05:30N 46°42' W 092°01'0 0.0
2018-Jun-13 05:01N 46°42' W 092°01'0 0.1
2018-Jun-13 04:28N 46°42' W 092°01'0 0.0
2018-Jun-13 03:55N 46°42' W 092°01'0 0.0
2018-Jun-13 03:25N 46°42' W 092°01'0 0.0
2018-Jun-13 02:52N 46°42' W 092°01'0 0.0
2018-Jun-13 02:25N 46°42' W 092°01'0 0.0
2018-Jun-13 01:55N 46°42' W 092°01'0 0.0
2018-Jun-13 01:25N 46°42' W 092°01'0 0.0
2018-Jun-13 00:55N 46°42' W 092°01'0 0.0
2018-Jun-13 00:25N 46°42' W 092°01'0 0.0
2018-Jun-12 23:58N 46°42' W 092°01'0 0.0
2018-Jun-12 23:25N 46°42' W 092°01'0 0.0
2018-Jun-12 22:55N 46°42' W 092°01'0 0.0
2018-Jun-12 22:25N 46°42' W 092°01'0 0.0
2018-Jun-12 21:55N 46°42' W 092°01'0 0.0
2018-Jun-12 21:28N 46°42' W 092°01'0 0.0
2018-Jun-12 20:55N 46°42' W 092°01'0 0.0
2018-Jun-12 20:28N 46°42' W 092°01'0 0.0
2018-Jun-12 19:55N 46°42' W 092°01'0 0.0
2018-Jun-12 19:25N 46°42' W 092°01'0 0.0
2018-Jun-12 18:55N 46°42' W 092°01'0 0.0
2018-Jun-12 18:28N 46°42' W 092°01'0 0.0
2018-Jun-12 17:58N 46°42' W 092°01'0 0.0
2018-Jun-12 17:28N 46°42' W 092°01'0 0.0
2018-Jun-12 16:58N 46°42' W 092°01'0 0.0
2018-Jun-12 16:28N 46°42' W 092°01'0 0.0
2018-Jun-12 15:58N 46°42' W 092°01'0 0.0
2018-Jun-12 15:28N 46°42' W 092°01'0 0.0
2018-Jun-12 14:58N 46°42' W 092°01'0 0.0
2018-Jun-12 14:25N 46°42' W 092°01'0 0.0
2018-Jun-12 13:55N 46°42' W 092°01'0 0.0
2018-Jun-12 13:25N 46°42' W 092°01'0 0.0
2018-Jun-12 12:55N 46°42' W 092°01'0 0.0
2018-Jun-12 12:19N 46°42' W 092°01'0 0.0
2018-Jun-12 11:52N 46°42' W 092°01'0 0.0
2018-Jun-12 11:27N 46°42' W 092°01'0 0.4
2018-Jun-12 11:00N 46°42' W 092°01'1 1.9
2018-Jun-12 10:30N 46°43' W 092°00'1 2.9
2018-Jun-12 10:00N 46°43' W 091°58'612.8
2018-Jun-12 09:30N 46°47' W 091°50'713.7
2018-Jun-12 09:00N 46°50' W 091°41'713.6
2018-Jun-12 08:30N 46°53' W 091°32'1213.5
2018-Jun-12 07:37N 46°58' W 091°17'513.5
2018-Jun-12 07:15N 47°00' W 091°10'  
Track history (hours):
 
Tides and Currents Weather Stations Pressure Air Temp Water Temp Dewpoint Dewpoint Depression Visibility Wind Speed Wind Dir Waves Ship Positions

Algoma Spirit

Last reported at 2018-Jun-21 17:58 UTC. Time now 2018-Jun-21 18:12 UTC.
Position N 47°01' W 091°40'.

Length 222 m; draft 7.3 m.

Type: Ship. MMSI: 316018616.

Date/timePositionNaut miles runAvg speedWind from/ knotsBaromVisibWave heightAir tempDewpointWater temp
2018-Jun-21 17:58N 47°01' W 091°40'0 0.0
2018-Jun-21 17:28N 47°01' W 091°40'0 0.0
2018-Jun-21 17:00N 47°01' W 091°40'0 0.1
2018-Jun-21 16:30N 47°01' W 091°40'1 1.7
2018-Jun-21 16:00N 47°00' W 091°40'5413.6
2018-Jun-21 12:00N 47°18' W 090°24'13813.8 050 / 131012.610.8 7.0
2018-Jun-21 02:00N 47°18' W 087°00'2110.6 170 / 21011.710.8 8.0
2018-Jun-21 00:00N 47°12' W 086°30'7514.9 010 / 91011.210.8 8.0
2018-Jun-20 19:00N 46°30' W 085°00'64 6.7 310 / 151012.010.8 13.0
2018-Jun-20 09:28N 45°50' W 083°48'613.7
2018-Jun-20 09:00N 45°45' W 083°42'713.8
2018-Jun-20 08:30N 45°39' W 083°37'713.7
2018-Jun-20 08:01N 45°34' W 083°31'713.5
2018-Jun-20 07:30N 45°28' W 083°26'713.6
2018-Jun-20 06:58N 45°22' W 083°20'7515.1
2018-Jun-20 02:00N 44°12' W 082°42'1514.8 340 / 121013.3 14.0
2018-Jun-20 01:00N 44°00' W 082°30'6 6.0 330 / 91013.510.8 15.0
2018-Jun-20 00:00N 43°54' W 082°30'8416.9 320 / 81013.610.8 16.0
2018-Jun-19 19:00N 42°30' W 082°18'60 4.3 360 / 131015.010.8 25.0
2018-Jun-19 05:00N 41°30' W 082°24'5012.6 020 / 141011.0 5.4 23.0
2018-Jun-19 01:00N 42°00' W 081°30'1514.9 310 / 141009.9 5.4 23.0
2018-Jun-19 00:00N 42°12' W 081°18'89 1.9 300 / 141009.9 5.4 22.0
2018-Jun-17 00:00N 43°12' W 079°48'46 1.9 310 / 41014.410.8 29.0
2018-Jun-16 00:00N 42°30' W 080°12'117 5.6 170 / 51015.010.8 20.0
2018-Jun-15 03:00N 43°30' W 082°30'6 6.0 360 / 21014.710.8 14.0
2018-Jun-15 02:00N 43°36' W 082°30'11612.9 200 / 71014.510.8 16.0
2018-Jun-14 17:01N 45°28' W 083°15'113.4
2018-Jun-14 16:56N 45°28' W 083°16'613.5
2018-Jun-14 16:31N 45°33' W 083°22'154 9.9
2018-Jun-14 01:00N 47°12' W 086°12'16312.5 300 / 201010.210.8 13.0
2018-Jun-13 12:00N 47°12' W 090°12'6014.1 270 / 251010.310.8 10.0
2018-Jun-13 07:42N 46°53' W 091°36'313.6
2018-Jun-13 07:29N 46°51' W 091°40'713.6
2018-Jun-13 07:00N 46°48' W 091°48'611.7
2018-Jun-13 06:31N 46°45' W 091°55'4 7.7
2018-Jun-13 06:00N 46°43' W 092°00'1 2.4
2018-Jun-13 05:30N 46°42' W 092°01'0 0.0
2018-Jun-13 05:01N 46°42' W 092°01'0 0.1
2018-Jun-13 04:28N 46°42' W 092°01'0 0.0
2018-Jun-13 03:55N 46°42' W 092°01'0 0.0
2018-Jun-13 03:25N 46°42' W 092°01'0 0.0
2018-Jun-13 02:52N 46°42' W 092°01'0 0.0
2018-Jun-13 02:25N 46°42' W 092°01'0 0.0
2018-Jun-13 01:55N 46°42' W 092°01'0 0.0
2018-Jun-13 01:25N 46°42' W 092°01'0 0.0
2018-Jun-13 00:55N 46°42' W 092°01'0 0.0
2018-Jun-13 00:25N 46°42' W 092°01'0 0.0
2018-Jun-12 23:58N 46°42' W 092°01'0 0.0
2018-Jun-12 23:25N 46°42' W 092°01'0 0.0
2018-Jun-12 22:55N 46°42' W 092°01'0 0.0
2018-Jun-12 22:25N 46°42' W 092°01'0 0.0
2018-Jun-12 21:55N 46°42' W 092°01'0 0.0
2018-Jun-12 21:28N 46°42' W 092°01'0 0.0
2018-Jun-12 20:55N 46°42' W 092°01'0 0.0
2018-Jun-12 20:28N 46°42' W 092°01'0 0.0
2018-Jun-12 19:55N 46°42' W 092°01'0 0.0
2018-Jun-12 19:25N 46°42' W 092°01'0 0.0
2018-Jun-12 18:55N 46°42' W 092°01'0 0.0
2018-Jun-12 18:28N 46°42' W 092°01'0 0.0
2018-Jun-12 17:58N 46°42' W 092°01'0 0.0
2018-Jun-12 17:28N 46°42' W 092°01'0 0.0
2018-Jun-12 16:58N 46°42' W 092°01'0 0.0
2018-Jun-12 16:28N 46°42' W 092°01'0 0.0
2018-Jun-12 15:58N 46°42' W 092°01'0 0.0
2018-Jun-12 15:28N 46°42' W 092°01'0 0.0
2018-Jun-12 14:58N 46°42' W 092°01'0 0.0
2018-Jun-12 14:25N 46°42' W 092°01'0 0.0
2018-Jun-12 13:55N 46°42' W 092°01'0 0.0
2018-Jun-12 13:25N 46°42' W 092°01'0 0.0
2018-Jun-12 12:55N 46°42' W 092°01'0 0.0
2018-Jun-12 12:19N 46°42' W 092°01'0 0.0
2018-Jun-12 11:52N 46°42' W 092°01'0 0.0
2018-Jun-12 11:27N 46°42' W 092°01'0 0.4
2018-Jun-12 11:00N 46°42' W 092°01'1 1.9
2018-Jun-12 10:30N 46°43' W 092°00'1 2.9
2018-Jun-12 10:00N 46°43' W 091°58'612.8
2018-Jun-12 09:30N 46°47' W 091°50'713.7
2018-Jun-12 09:00N 46°50' W 091°41'713.6
2018-Jun-12 08:30N 46°53' W 091°32'1213.5
2018-Jun-12 07:37N 46°58' W 091°17'513.5
2018-Jun-12 07:15N 47°00' W 091°10'  

Dump ship's entire track history